Main page
METAR-TAF:

METAR-TAF

Airports :

Mary International Airport

Mary, Turkmenistan

latitude: 37-36-24N, longitude: 061-54-05E, elevation: 222 m

Current weather observation

The report was made 26 minutes ago, at 06:00 UTC
Calm wind
Temperature 1°C
Humidity 51%
Pressure 1034 hPa
Visibility 10 km or more
no clouds below 1500 m and no cumulonimbus

METAR: UTAM 220600Z 00000KT CAVOK 01/M08 Q1034 R88/CLRD70 NOSIG

Time: 11:26 (06:26 UTC)

Forecast

The report was made 1 hour and 56 minutes ago, at 04:30 UTC
Forecast valid from 22 at 06 UTC to 23 at 06 UTC
Wind 10 kt from the East/Northeast
Visibility: 5000 m
Broken clouds at a height of 2000 ft
Temporary
from 22 at 06 UTC to 22 at 12 UTC
Wind 4 kt from variable directions
Overcast at a height of 1000 ft

TAF: UTAM 220430Z 2206/2306 06010KT 5000 BKN020 TEMPO 2206/2212 VRB04KT OVC010

Weather observations and forecasts of more than 4000 airports (METAR and TAF reports).

The available stations are represented by yellow and red dots on the map.

Hover mouse over dot to see the name of the station.

Then click to see weather observations and forecasts.

To change the map : click on the green buttons with a black cross to zoom in, on the green button with a dash to zoom out, or on the green arrows for adjacent maps.


METAR-TAF: